Aeroporto :
LOGIN :

Iscrizione | Disclaimer

   EN    FR    IT 

 










Sommario :    VFR   VFR Marginale   IFR   IFR Intensivo   IFR Molto Intensivo
Visibilità : 
Base nubi : 
>= 8 km
>= 3000ft
5 / 8 km
1000 / 3000 ft
1500m / 5 km
500 / 1000 ft
800 / 1500m
200 / 500 ft
< 800m
< 200 ft
Simboli :   Temporali  Nebbia  Neve Forte  Precipitazioni Forti  Vento > 20 kt
SIGMETs :   Varie  Temporali  Ghiacco  Turbolenza  Onda orograficha  Ceneri Vulcaniche






- Altitudine del aeroporto : 97 ft
- Codice IATA : EBJ


EKEB - Esbjerg

ULTIMO METAR :
  • 131150Z AUTO 12008KT 9999 OVC009/// 04/02 Q0995

METARs OBSOLETI :
  • 131120Z AUTO 12008KT 100V160 9999 OVC010/// 04/02 Q0995
  • 131050Z AUTO 12008KT 9999 OVC010/// 03/02 Q0995
  • 131020Z AUTO 13010KT 9999 OVC010/// 03/02 Q0996
  • 130950Z AUTO 12009KT 9999 OVC010/// 03/02 Q0996
  • 130920Z AUTO 12008KT 9999 OVC010/// 03/02 Q0996

TAF TAF EKEB
Valido dal 13 a 12 ore il 13 a 21 ore UTC


131124Z 1312/1321 12010KT 9999 BKN015
BECMG 1312/1315 14015G25KT 4000 SHRA BKN008 BKN030CB
TEMPO 1315/1317 8000 -RA BKN015
BECMG 1315/1317 17010KT
BECMG 1317/1319 7000 NSW SCT018
TEMPO 1319/1321 3000 SHRA BR BKN010 SCT015CB



MetMap, La meteo Aeronautica in un colpo d'occhio ! - Copyright ORBIFLY Dicembre 2007 - Disclaimer

ORBIFLY MET'MAP TEAM :

Programmazione e sviluppo : Alexandra Zaïnal
Concezione e sviluppo : Baudouin d'Aumeries
Co-Programmazione e sviluppo : Marc-Olivier Méhu
Supporto tecnico e logistico : Manuel Goepfert
Aiuto per la traduzione : Arnaldo La Scala

Contatto : metmap@orbifly.com




FONTI E CREDITI :

   NOAA